createdAt,value
2022-09-10T00:01:49.258Z,95.59
2022-09-10T00:04:17.318Z,95.58
2022-09-10T00:06:44.748Z,96.18
2022-09-10T00:09:12.951Z,97.35
2022-09-10T00:11:40.676Z,96.07
2022-09-10T00:14:11.540Z,96.04
2022-09-10T00:16:38.218Z,95.98
2022-09-10T00:19:05.049Z,96.15
2022-09-10T00:21:31.765Z,96.16
2022-09-10T00:23:58.694Z,96.81
2022-09-10T00:26:28.250Z,96.50
2022-09-10T00:28:56.936Z,100.00
2022-09-10T00:31:24.686Z,100.00
2022-09-10T00:33:51.936Z,100.00
2022-09-10T00:36:25.667Z,99.63
2022-09-10T00:38:54.221Z,99.55
2022-09-10T00:41:23.287Z,98.31
2022-09-10T00:44:05.562Z,98.79
2022-09-10T00:46:49.032Z,100.00
2022-09-10T00:49:19.807Z,99.74
2022-09-10T00:51:48.458Z,98.08
2022-09-10T00:54:18.185Z,96.61
2022-09-10T00:56:45.408Z,96.11
2022-09-10T00:59:16.906Z,97.35
2022-09-10T01:01:43.819Z,96.90
2022-09-10T01:04:10.903Z,97.38
2022-09-10T01:06:44.666Z,97.58
2022-09-10T01:09:13.319Z,100.00
2022-09-10T01:12:00.146Z,99.92
2022-09-10T01:14:50.111Z,99.33
2022-09-10T01:17:58.722Z,98.50
2022-09-10T01:20:46.163Z,100.00
2022-09-10T01:23:31.228Z,96.61
2022-09-10T01:26:15.620Z,97.59
2022-09-10T01:28:51.962Z,97.42
2022-09-10T01:31:47.814Z,96.89
2022-09-10T01:34:23.544Z,97.06
2022-09-10T01:36:53.871Z,97.78
2022-09-10T01:39:21.967Z,95.46
2022-09-10T01:41:48.821Z,98.20
2022-09-10T01:44:39.999Z,98.37
2022-09-10T01:47:45.538Z,97.52
2022-09-10T01:50:34.111Z,95.91
2022-09-10T01:53:21.800Z,97.77
2022-09-10T01:55:51.335Z,100.00
2022-09-10T01:58:36.114Z,100.00
2022-09-10T02:01:02.708Z,100.00
2022-09-10T02:03:31.875Z,100.00
2022-09-10T02:06:00.472Z,100.00
2022-09-10T02:08:31.356Z,100.00
2022-09-10T02:11:00.697Z,100.00
2022-09-10T02:13:30.827Z,100.00
2022-09-10T02:15:57.562Z,100.00
2022-09-10T02:18:25.845Z,100.00
2022-09-10T02:20:55.224Z,100.00
2022-09-10T02:23:26.482Z,100.00
2022-09-10T02:25:53.129Z,100.00
2022-09-10T02:28:20.496Z,100.00
2022-09-10T02:30:47.113Z,100.00
2022-09-10T02:33:13.999Z,100.00
2022-09-10T02:35:40.585Z,100.00
2022-09-10T02:38:07.510Z,100.00
2022-09-10T02:40:34.771Z,100.00
2022-09-10T02:43:01.369Z,100.00
2022-09-10T02:45:28.025Z,100.00
2022-09-10T02:47:54.707Z,100.00
2022-09-10T02:50:21.277Z,100.00
2022-09-10T02:52:47.901Z,100.00
2022-09-10T02:55:14.488Z,100.00
2022-09-10T02:57:41.097Z,100.00
2022-09-10T03:00:08.814Z,100.00
2022-09-10T03:02:35.418Z,100.00
2022-09-10T03:05:02.211Z,99.69
2022-09-10T03:07:28.833Z,100.00
2022-09-10T03:09:55.448Z,99.24
2022-09-10T03:12:22.030Z,100.00
2022-09-10T03:14:48.634Z,100.00
2022-09-10T03:17:15.368Z,100.00
2022-09-10T03:19:41.931Z,99.00
2022-09-10T03:22:09.028Z,98.74
2022-09-10T03:24:35.594Z,98.75
2022-09-10T03:27:02.150Z,99.17
2022-09-10T03:29:28.849Z,98.75
2022-09-10T03:31:55.756Z,99.36
2022-09-10T03:34:22.322Z,98.92
2022-09-10T03:36:48.983Z,97.55
2022-09-10T03:39:15.844Z,97.76
2022-09-10T03:41:42.654Z,97.53
2022-09-10T03:44:09.241Z,99.06
2022-09-10T03:46:35.831Z,99.02
2022-09-10T03:49:02.541Z,95.99
2022-09-10T03:51:29.512Z,91.71
2022-09-10T03:53:56.101Z,91.52
2022-09-10T03:56:23.064Z,94.39
2022-09-10T03:58:49.658Z,94.03
2022-09-10T04:01:17.139Z,95.83
2022-09-10T04:03:44.121Z,97.80
2022-09-10T04:06:15.324Z,95.25
2022-09-10T04:08:42.613Z,94.07
2022-09-10T04:11:09.867Z,96.37
2022-09-10T04:13:36.461Z,95.78
2022-09-10T04:16:03.165Z,97.72
2022-09-10T04:18:29.893Z,97.23
2022-09-10T04:20:56.473Z,97.73
2022-09-10T04:23:23.113Z,96.35
2022-09-10T04:25:49.851Z,98.35
2022-09-10T04:28:16.644Z,97.08
2022-09-10T04:30:44.282Z,97.17
2022-09-10T04:33:11.194Z,96.42
2022-09-10T04:35:38.590Z,96.26
2022-09-10T04:38:05.987Z,94.74
2022-09-10T04:40:32.538Z,95.06
2022-09-10T04:42:59.124Z,96.46
2022-09-10T04:45:25.777Z,92.02
2022-09-10T04:47:52.623Z,94.72
2022-09-10T04:50:19.208Z,95.18
2022-09-10T04:52:45.849Z,94.04
2022-09-10T04:55:12.429Z,93.54
2022-09-10T04:57:39.052Z,93.39
2022-09-10T05:00:06.816Z,91.21
2022-09-10T05:02:33.615Z,92.50
2022-09-10T05:05:00.316Z,92.47
2022-09-10T05:07:26.942Z,89.32
2022-09-10T05:09:53.688Z,88.98
2022-09-10T05:12:20.277Z,88.45
2022-09-10T05:14:46.854Z,89.94
2022-09-10T05:17:13.515Z,91.30
2022-09-10T05:19:40.079Z,91.18
2022-09-10T05:22:07.666Z,90.57
2022-09-10T05:24:34.272Z,91.14
2022-09-10T05:27:00.846Z,90.99
2022-09-10T05:29:27.614Z,90.63
2022-09-10T05:31:54.227Z,91.91
2022-09-10T05:34:20.854Z,92.09
2022-09-10T05:36:47.482Z,91.48
2022-09-10T05:39:14.104Z,90.03
2022-09-10T05:41:40.664Z,92.33
2022-09-10T05:44:07.224Z,91.41
2022-09-10T05:46:33.801Z,89.87
2022-09-10T05:49:00.400Z,90.34
2022-09-10T05:51:27.206Z,90.87
2022-09-10T05:53:53.798Z,90.77
2022-09-10T05:56:20.457Z,90.07
2022-09-10T05:58:47.085Z,91.34
2022-09-10T06:01:13.665Z,90.72
2022-09-10T06:03:40.265Z,89.64
2022-09-10T06:06:07.354Z,89.45
2022-09-10T06:08:34.697Z,89.58
2022-09-10T06:11:04.405Z,88.48
2022-09-10T06:13:32.400Z,88.00
2022-09-10T06:15:59.223Z,88.46
2022-09-10T06:18:25.988Z,87.56
2022-09-10T06:21:11.983Z,86.92
2022-09-10T06:23:38.591Z,86.57
2022-09-10T06:26:07.846Z,86.08
2022-09-10T06:28:35.116Z,87.15
2022-09-10T06:31:02.004Z,87.29
2022-09-10T06:33:28.621Z,87.02
2022-09-10T06:35:56.905Z,85.57
2022-09-10T06:38:24.014Z,86.40
2022-09-10T06:40:54.610Z,85.03
2022-09-10T06:43:22.611Z,84.24
2022-09-10T06:45:58.355Z,83.82
2022-09-10T06:48:38.685Z,86.33
2022-09-10T06:51:09.276Z,82.48
2022-09-10T06:53:37.201Z,81.47
2022-09-10T06:56:05.412Z,83.98
2022-09-10T06:58:33.130Z,83.07
2022-09-10T07:01:11.922Z,83.80
2022-09-10T07:03:38.513Z,83.48
2022-09-10T07:06:10.680Z,83.98
2022-09-10T07:08:37.481Z,82.49
2022-09-10T07:11:06.531Z,83.76
2022-09-10T07:13:35.299Z,84.85
2022-09-10T07:16:02.078Z,84.14
2022-09-10T07:18:28.742Z,83.78
2022-09-10T07:21:12.961Z,85.12
2022-09-10T07:23:40.019Z,84.74
2022-09-10T07:26:12.948Z,84.16
2022-09-10T07:28:40.934Z,83.85
2022-09-10T07:31:19.506Z,84.85
2022-09-10T07:33:46.552Z,85.81
2022-09-10T07:36:14.468Z,85.59
2022-09-10T07:38:42.065Z,84.94
2022-09-10T07:41:11.605Z,85.81
2022-09-10T07:43:39.536Z,86.32
2022-09-10T07:46:07.014Z,89.20
2022-09-10T07:48:33.771Z,92.37
2022-09-10T07:51:05.527Z,96.64
2022-09-10T07:53:32.339Z,96.63
2022-09-10T07:56:03.563Z,97.97
2022-09-10T07:58:31.577Z,98.09
2022-09-10T08:01:01.692Z,97.45
2022-09-10T08:03:29.519Z,98.24
2022-09-10T08:06:01.058Z,100.00
2022-09-10T08:08:31.769Z,100.00
2022-09-10T08:11:12.071Z,100.00
2022-09-10T08:13:44.447Z,100.00
2022-09-10T08:16:13.914Z,100.00
2022-09-10T08:18:41.279Z,100.00
2022-09-10T08:21:08.174Z,100.00
2022-09-10T08:23:35.577Z,100.00
2022-09-10T08:26:02.146Z,100.00
2022-09-10T08:28:28.741Z,100.00
2022-09-10T08:31:08.963Z,95.67
2022-09-10T08:33:36.605Z,97.04
2022-09-10T08:36:05.134Z,99.33
2022-09-10T08:38:36.952Z,99.10
2022-09-10T08:41:45.077Z,100.00
2022-09-10T08:44:31.044Z,98.56
2022-09-10T08:47:06.704Z,100.00
2022-09-10T08:49:48.525Z,97.77
2022-09-10T08:52:15.038Z,97.80
2022-09-10T08:54:54.099Z,95.81
2022-09-10T08:57:32.325Z,98.26
2022-09-10T09:00:01.948Z,95.00
2022-09-10T09:02:50.298Z,93.96
2022-09-10T09:05:22.929Z,96.88
2022-09-10T09:07:51.396Z,95.65
2022-09-10T09:10:47.158Z,93.64
2022-09-10T09:13:26.029Z,91.33
2022-09-10T09:16:24.868Z,85.58
2022-09-10T09:19:22.122Z,85.26
2022-09-10T09:21:51.978Z,83.07
2022-09-10T09:24:42.719Z,83.46
2022-09-10T09:27:16.213Z,83.49
2022-09-10T09:29:54.727Z,83.26
2022-09-10T09:32:22.569Z,82.00
2022-09-10T09:35:13.807Z,78.19
2022-09-10T09:37:42.199Z,79.07
2022-09-10T09:40:22.283Z,74.25
2022-09-10T09:43:19.595Z,72.69
2022-09-10T09:45:46.267Z,71.36
2022-09-10T09:48:16.211Z,70.38
2022-09-10T09:50:45.867Z,70.35
2022-09-10T09:53:26.197Z,70.83
2022-09-10T09:55:58.812Z,72.21
2022-09-10T09:58:25.340Z,69.62
2022-09-10T10:01:04.313Z,71.45
2022-09-10T10:03:58.286Z,72.16
2022-09-10T10:06:31.531Z,69.38
2022-09-10T10:09:01.907Z,69.81
2022-09-10T10:11:59.454Z,63.54
2022-09-10T10:14:31.718Z,67.37
2022-09-10T10:17:00.895Z,65.38
2022-09-10T10:19:33.740Z,65.35
2022-09-10T10:22:15.494Z,66.97
2022-09-10T10:24:42.896Z,65.20
2022-09-10T10:27:20.102Z,65.66
2022-09-10T10:30:16.739Z,66.75
2022-09-10T10:32:49.791Z,63.67
2022-09-10T10:36:01.216Z,64.01
2022-09-10T10:38:34.502Z,67.10
2022-09-10T10:41:19.494Z,67.06
2022-09-10T10:44:13.381Z,64.25
2022-09-10T10:46:58.461Z,62.83
2022-09-10T10:49:35.665Z,58.75
2022-09-10T10:52:02.194Z,57.68
2022-09-10T10:55:03.507Z,57.88
2022-09-10T10:57:49.199Z,58.76
2022-09-10T11:00:19.127Z,56.54
2022-09-10T11:03:02.862Z,51.39
2022-09-10T11:05:46.801Z,53.37
2022-09-10T11:08:50.212Z,52.62
2022-09-10T11:11:22.369Z,51.54
2022-09-10T11:14:25.007Z,51.00
2022-09-10T11:17:14.617Z,49.48
2022-09-10T11:20:17.174Z,50.52
2022-09-10T11:22:48.496Z,50.40
2022-09-10T11:25:27.027Z,49.48
2022-09-10T11:28:20.152Z,50.19
2022-09-10T11:30:55.245Z,48.49
2022-09-10T11:33:44.659Z,46.34
2022-09-10T11:36:22.290Z,48.12
2022-09-10T11:39:25.507Z,47.59
2022-09-10T11:41:54.600Z,47.68
2022-09-10T11:44:44.848Z,47.30
2022-09-10T11:47:32.771Z,47.67
2022-09-10T11:50:30.000Z,46.21
2022-09-10T11:53:00.955Z,46.09
2022-09-10T11:55:40.578Z,47.70
2022-09-10T11:58:46.001Z,45.61
2022-09-10T12:01:31.113Z,45.14
2022-09-10T12:04:29.295Z,45.14
2022-09-10T12:06:59.022Z,46.02
2022-09-10T12:09:51.674Z,45.39
2022-09-10T12:12:27.580Z,46.78
2022-09-10T12:14:54.275Z,45.67
2022-09-10T12:17:34.428Z,45.01
2022-09-10T12:20:04.776Z,45.15
2022-09-10T12:22:31.339Z,45.13
2022-09-10T12:25:25.884Z,45.57
2022-09-10T12:27:58.396Z,43.00
2022-09-10T12:30:24.917Z,45.40
2022-09-10T12:32:52.265Z,46.97
2022-09-10T12:35:31.116Z,43.26
2022-09-10T12:38:35.382Z,44.23
2022-09-10T12:41:03.270Z,43.19
2022-09-10T12:43:39.136Z,42.56
2022-09-10T12:46:08.877Z,42.26
2022-09-10T12:48:48.124Z,41.14
2022-09-10T12:51:17.662Z,42.83
2022-09-10T12:54:09.476Z,42.63
2022-09-10T12:56:39.022Z,41.88
2022-09-10T12:59:36.354Z,42.25
2022-09-10T13:02:03.881Z,42.02
2022-09-10T13:04:36.309Z,42.46
2022-09-10T13:07:24.201Z,41.55
2022-09-10T13:10:21.732Z,42.61
2022-09-10T13:12:53.731Z,41.71
2022-09-10T13:15:23.431Z,42.50
2022-09-10T13:17:49.995Z,41.50
2022-09-10T13:20:19.290Z,41.55
2022-09-10T13:23:01.729Z,41.87
2022-09-10T13:25:45.969Z,40.04
2022-09-10T13:28:41.597Z,41.18
2022-09-10T13:31:08.265Z,41.22
2022-09-10T13:33:49.761Z,42.37
2022-09-10T13:36:25.141Z,41.02
2022-09-10T13:39:15.000Z,43.04
2022-09-10T13:41:59.977Z,41.62
2022-09-10T13:45:05.305Z,42.22
2022-09-10T13:47:47.884Z,41.98
2022-09-10T13:50:18.405Z,43.75
2022-09-10T13:52:49.760Z,41.78
2022-09-10T13:55:20.504Z,43.76
2022-09-10T13:57:50.322Z,44.15
2022-09-10T14:00:23.968Z,42.05
2022-09-10T14:02:54.213Z,43.23
2022-09-10T14:05:51.891Z,41.15
2022-09-10T14:08:18.398Z,40.66
2022-09-10T14:10:59.878Z,40.77
2022-09-10T14:13:47.390Z,40.22
2022-09-10T14:16:30.123Z,39.43
2022-09-10T14:19:01.500Z,39.07
2022-09-10T14:21:28.736Z,39.51
2022-09-10T14:23:57.922Z,40.46
2022-09-10T14:26:30.035Z,39.83
2022-09-10T14:29:24.940Z,40.29
2022-09-10T14:31:51.567Z,38.69
2022-09-10T14:34:30.740Z,38.50
2022-09-10T14:36:57.744Z,39.09
2022-09-10T14:39:25.211Z,40.06
2022-09-10T14:42:09.495Z,39.45
2022-09-10T14:44:41.137Z,38.70
2022-09-10T14:47:10.467Z,39.07
2022-09-10T14:49:39.467Z,38.24
2022-09-10T14:52:06.459Z,40.50
2022-09-10T14:54:34.491Z,40.43
2022-09-10T14:57:07.318Z,40.68
2022-09-10T14:59:36.465Z,40.04
2022-09-10T15:02:14.182Z,40.13
2022-09-10T15:04:40.819Z,41.07
2022-09-10T15:07:09.808Z,40.74
2022-09-10T15:09:36.402Z,40.88
2022-09-10T15:12:27.856Z,40.06
2022-09-10T15:14:55.513Z,39.56
2022-09-10T15:17:22.151Z,40.12
2022-09-10T15:19:48.720Z,38.72
2022-09-10T15:22:24.162Z,39.66
2022-09-10T15:25:10.176Z,38.79
2022-09-10T15:27:37.657Z,39.48
2022-09-10T15:30:05.045Z,39.11
2022-09-10T15:32:31.658Z,41.53
2022-09-10T15:34:58.217Z,41.28
2022-09-10T15:37:24.781Z,41.36
2022-09-10T15:39:51.372Z,40.56
2022-09-10T15:42:18.143Z,40.86
2022-09-10T15:44:44.709Z,42.73
2022-09-10T15:47:11.278Z,42.05
2022-09-10T15:49:37.875Z,42.41
2022-09-10T15:52:04.450Z,42.83
2022-09-10T15:54:31.051Z,43.38
2022-09-10T15:59:24.262Z,43.53
2022-09-10T16:01:50.860Z,42.71
2022-09-10T16:04:17.437Z,43.34
2022-09-10T16:06:44.026Z,44.13
2022-09-10T16:09:12.658Z,44.35
2022-09-10T16:11:41.350Z,43.29
2022-09-10T16:14:11.405Z,44.28
2022-09-10T16:16:38.677Z,44.22
2022-09-10T16:19:05.684Z,44.08
2022-09-10T16:21:35.391Z,43.99
2022-09-10T16:24:03.017Z,44.59
2022-09-10T16:26:36.195Z,44.51
2022-09-10T16:29:05.766Z,43.86
2022-09-10T16:31:37.277Z,43.76
2022-09-10T16:34:05.985Z,43.43
2022-09-10T16:36:35.285Z,44.19
2022-09-10T16:39:01.958Z,44.89
2022-09-10T16:41:29.367Z,44.39
2022-09-10T16:43:59.745Z,44.66
2022-09-10T16:46:27.972Z,45.28
2022-09-10T16:48:55.660Z,45.34
2022-09-10T16:51:24.271Z,45.43
2022-09-10T16:53:56.510Z,46.66
2022-09-10T16:56:24.904Z,45.27
2022-09-10T16:58:51.707Z,46.38
2022-09-10T17:01:18.315Z,46.69
2022-09-10T17:03:50.037Z,46.37
2022-09-10T17:06:19.396Z,47.43
2022-09-10T17:08:46.711Z,48.27
2022-09-10T17:11:15.069Z,47.93
2022-09-10T17:13:42.251Z,47.88
2022-09-10T17:16:16.171Z,49.03
2022-09-10T17:18:44.399Z,48.88
2022-09-10T17:21:10.990Z,50.04
2022-09-10T17:23:37.672Z,50.77
2022-09-10T17:26:09.034Z,51.02
2022-09-10T17:28:38.970Z,50.57
2022-09-10T17:31:07.946Z,49.38
2022-09-10T17:33:34.583Z,48.80
2022-09-10T17:36:03.642Z,49.17
2022-09-10T17:38:31.490Z,49.12
2022-09-10T17:41:00.906Z,49.39
2022-09-10T17:43:30.579Z,48.48
2022-09-10T17:45:57.375Z,49.08
2022-09-10T17:48:28.010Z,47.82
2022-09-10T17:50:55.042Z,48.93
2022-09-10T17:53:21.764Z,49.28
2022-09-10T17:55:48.356Z,49.38
2022-09-10T17:58:15.080Z,48.96
2022-09-10T18:00:44.267Z,48.99
2022-09-10T18:03:12.426Z,48.48
2022-09-10T18:05:40.163Z,49.45
2022-09-10T18:08:07.045Z,49.30
2022-09-10T18:10:34.453Z,49.18
2022-09-10T18:13:01.114Z,49.68
2022-09-10T18:15:29.127Z,49.41
2022-09-10T18:17:57.216Z,49.43
2022-09-10T18:20:27.051Z,49.94
2022-09-10T18:22:54.480Z,51.32
2022-09-10T18:25:22.055Z,50.62
2022-09-10T18:27:48.693Z,51.21
2022-09-10T18:30:15.265Z,51.89
2022-09-10T18:32:41.826Z,51.54
2022-09-10T18:35:08.694Z,52.59
2022-09-10T18:37:35.283Z,52.27
2022-09-10T18:40:02.124Z,52.71
2022-09-10T18:42:28.769Z,52.46
2022-09-10T18:44:55.370Z,52.90
2022-09-10T18:47:41.364Z,52.61
2022-09-10T18:50:08.954Z,52.90
2022-09-10T18:52:35.598Z,53.25
2022-09-10T18:55:02.154Z,54.77
2022-09-10T18:57:28.722Z,53.58
2022-09-10T18:59:55.329Z,54.46
2022-09-10T19:02:22.127Z,54.49
2022-09-10T19:05:09.704Z,54.07
2022-09-10T19:07:35.595Z,54.58
2022-09-10T19:10:02.168Z,54.67
2022-09-10T19:12:28.802Z,55.54
2022-09-10T19:14:55.374Z,56.07
2022-09-10T19:17:22.013Z,56.40
2022-09-10T19:19:48.567Z,55.74
2022-09-10T19:22:15.113Z,57.44
2022-09-10T19:24:54.650Z,58.57
2022-09-10T19:27:22.285Z,57.95
2022-09-10T19:29:48.938Z,57.47
2022-09-10T19:32:15.564Z,57.93
2022-09-10T19:34:42.158Z,58.30
2022-09-10T19:37:08.761Z,58.94
2022-09-10T19:39:35.383Z,60.37
2022-09-10T19:42:01.962Z,60.38
2022-09-10T19:44:28.680Z,60.67
2022-09-10T19:46:55.351Z,61.13
2022-09-10T19:49:21.946Z,61.41
2022-09-10T19:51:48.574Z,61.69
2022-09-10T19:54:15.156Z,60.81
2022-09-10T19:56:42.473Z,61.35
2022-09-10T19:59:09.520Z,62.51
2022-09-10T20:01:41.357Z,62.50
2022-09-10T20:04:10.204Z,62.68
2022-09-10T20:06:38.224Z,62.61
2022-09-10T20:09:06.751Z,62.99
2022-09-10T20:11:34.667Z,62.82
2022-09-10T20:14:04.066Z,63.39
2022-09-10T20:16:30.977Z,63.60
2022-09-10T20:18:57.710Z,63.24
2022-09-10T20:21:27.148Z,64.02
2022-09-10T20:23:55.663Z,65.18
2022-09-10T20:26:23.583Z,64.76
2022-09-10T20:29:05.118Z,64.08
2022-09-10T20:31:34.563Z,63.69
2022-09-10T20:34:04.111Z,63.83
2022-09-10T20:36:32.075Z,63.75
2022-09-10T20:38:58.748Z,63.91
2022-09-10T20:41:25.951Z,63.87
2022-09-10T20:43:53.511Z,64.31
2022-09-10T20:46:22.357Z,64.52
2022-09-10T20:48:50.722Z,64.43
2022-09-10T20:51:18.771Z,64.20
2022-09-10T20:53:45.598Z,63.88
2022-09-10T20:56:15.097Z,64.58
2022-09-10T20:58:42.046Z,65.00
2022-09-10T21:01:11.567Z,64.70
2022-09-10T21:03:39.875Z,64.97
2022-09-10T21:06:07.317Z,64.97
2022-09-10T21:08:34.955Z,65.97
2022-09-10T21:11:07.221Z,66.41
2022-09-10T21:13:34.995Z,66.17
2022-09-10T21:16:12.404Z,66.80
2022-09-10T21:18:39.889Z,65.17
2022-09-10T21:21:12.638Z,67.08
2022-09-10T21:23:47.117Z,66.68
2022-09-10T21:26:16.050Z,66.90
2022-09-10T21:28:42.762Z,67.38
2022-09-10T21:31:09.865Z,66.50
2022-09-10T21:33:37.205Z,67.15
2022-09-10T21:36:15.530Z,65.64
2022-09-10T21:38:46.257Z,65.92
2022-09-10T21:41:15.760Z,66.78
2022-09-10T21:43:44.261Z,66.44
2022-09-10T21:46:12.098Z,67.81
2022-09-10T21:48:38.869Z,67.55
2022-09-10T21:51:08.007Z,66.05
2022-09-10T21:53:35.383Z,65.15
2022-09-10T21:56:03.963Z,66.38
2022-09-10T21:58:33.459Z,68.30
2022-09-10T22:01:00.179Z,66.95
2022-09-10T22:03:32.277Z,66.70
2022-09-10T22:06:10.142Z,66.43
2022-09-10T22:08:39.069Z,65.75
2022-09-10T22:11:14.982Z,66.51
2022-09-10T22:13:42.910Z,67.40
2022-09-10T22:16:13.097Z,66.88
2022-09-10T22:18:39.827Z,67.46
2022-09-10T22:21:07.023Z,68.69
2022-09-10T22:23:36.737Z,69.58
2022-09-10T22:26:09.897Z,69.71
2022-09-10T22:28:37.281Z,70.75
2022-09-10T22:31:12.824Z,70.00
2022-09-10T22:33:41.529Z,70.31
2022-09-10T22:36:18.897Z,69.03
2022-09-10T22:38:54.148Z,70.90
2022-09-10T22:41:20.869Z,70.12
2022-09-10T22:43:47.453Z,71.66
2022-09-10T22:46:14.091Z,71.68
2022-09-10T22:48:42.629Z,70.92
2022-09-10T22:51:12.357Z,70.86
2022-09-10T22:53:41.294Z,71.26
2022-09-10T22:56:08.611Z,71.78
2022-09-10T22:58:35.643Z,71.23
2022-09-10T23:01:08.691Z,73.69
2022-09-10T23:03:36.385Z,72.73
2022-09-10T23:06:07.288Z,72.51
2022-09-10T23:08:35.379Z,73.16
2022-09-10T23:11:15.385Z,73.59
2022-09-10T23:13:43.622Z,73.13
2022-09-10T23:16:12.188Z,72.96
2022-09-10T23:18:39.912Z,73.30
2022-09-10T23:21:07.604Z,74.50
2022-09-10T23:23:34.970Z,74.46
2022-09-10T23:26:09.540Z,73.72
2022-09-10T23:28:37.285Z,74.04
2022-09-10T23:31:24.978Z,74.18
2022-09-10T23:33:55.360Z,75.20
2022-09-10T23:36:22.764Z,74.84
2022-09-10T23:38:49.341Z,74.95
2022-09-10T23:41:16.630Z,75.00
2022-09-10T23:43:44.086Z,73.80
2022-09-10T23:46:12.044Z,74.18
2022-09-10T23:48:40.019Z,73.74
2022-09-10T23:51:06.732Z,73.87
2022-09-10T23:53:33.733Z,72.81
2022-09-10T23:56:00.817Z,72.59
2022-09-10T23:58:27.362Z,72.68
